createdAt,value
2022-08-17T00:04:12.314Z,30.35
2022-08-17T00:06:43.969Z,30.37
2022-08-17T00:09:13.844Z,30.38
2022-08-17T00:12:41.080Z,30.35
2022-08-17T00:14:42.590Z,30.31
2022-08-17T00:17:11.814Z,30.25
2022-08-17T00:19:41.201Z,30.22
2022-08-17T00:30:10.464Z,30.19
2022-08-17T00:33:14.104Z,30.19
2022-08-17T00:35:33.054Z,30.11
2022-08-17T00:38:04.040Z,30.09
2022-08-17T00:40:40.621Z,30.04
2022-08-17T00:43:31.738Z,29.99
2022-08-17T00:46:06.773Z,29.94
2022-08-17T00:52:11.946Z,29.89
2022-08-17T00:54:43.466Z,29.91
2022-08-17T00:57:35.245Z,29.97
2022-08-17T01:00:11.568Z,29.95
2022-08-17T01:02:44.366Z,29.92
2022-08-17T01:05:23.835Z,29.91
2022-08-17T01:13:02.478Z,29.92
2022-08-17T01:15:35.026Z,29.89
2022-08-17T01:18:04.434Z,29.85
2022-08-17T01:20:32.420Z,29.86
2022-08-17T01:23:21.645Z,29.87
2022-08-17T01:25:55.445Z,29.86
2022-08-17T01:28:52.919Z,29.83
2022-08-17T01:36:21.587Z,29.80
2022-08-17T01:38:50.763Z,29.78
2022-08-17T01:41:21.814Z,29.75
2022-08-17T01:43:57.142Z,29.77
2022-08-17T01:46:32.155Z,29.78
2022-08-17T01:49:05.399Z,29.74
2022-08-17T01:51:33.795Z,29.74
2022-08-17T01:56:51.842Z,29.72
2022-08-17T01:59:21.881Z,29.70
2022-08-17T02:01:51.487Z,29.68
2022-08-17T02:04:20.770Z,29.67
2022-08-17T02:06:53.291Z,29.66
2022-08-17T02:09:25.701Z,29.66
2022-08-17T02:11:56.353Z,29.65
2022-08-17T02:18:43.994Z,29.51
2022-08-17T02:21:13.510Z,29.52
2022-08-17T02:23:46.337Z,29.53
2022-08-17T02:26:23.950Z,29.50
2022-08-17T02:28:53.535Z,29.50
2022-08-17T02:31:22.365Z,29.50
2022-08-17T02:34:03.393Z,29.49
2022-08-17T02:41:42.475Z,29.41
2022-08-17T02:44:12.082Z,29.39
2022-08-17T02:46:41.442Z,29.36
2022-08-17T02:49:10.855Z,29.35
2022-08-17T02:51:38.357Z,29.34
2022-08-17T02:54:40.129Z,29.33
2022-08-17T02:56:55.306Z,29.31
2022-08-17T03:07:16.005Z,29.24
2022-08-17T03:09:43.514Z,29.23
2022-08-17T03:12:14.072Z,29.22
2022-08-17T03:14:43.904Z,29.20
2022-08-17T03:17:17.140Z,29.15
2022-08-17T03:19:45.280Z,29.14
2022-08-17T03:22:35.595Z,29.13
2022-08-17T03:32:55.680Z,29.05
2022-08-17T03:35:25.891Z,29.03
2022-08-17T03:38:00.337Z,29.03
2022-08-17T03:40:36.985Z,29.03
2022-08-17T03:43:22.694Z,29.02
2022-08-17T03:46:10.891Z,28.95
2022-08-17T03:53:41.508Z,28.89
2022-08-17T03:56:27.370Z,28.85
2022-08-17T03:58:54.897Z,28.85
2022-08-17T04:01:23.190Z,28.85
2022-08-17T04:03:52.561Z,28.84
2022-08-17T04:06:21.564Z,28.83
2022-08-17T04:08:50.398Z,28.81
2022-08-17T04:14:06.788Z,28.77
2022-08-17T04:16:35.220Z,28.78
2022-08-17T04:19:04.050Z,28.77
2022-08-17T04:21:32.726Z,28.79
2022-08-17T04:24:02.324Z,28.79
2022-08-17T04:26:52.184Z,28.78
2022-08-17T04:29:22.870Z,28.76
2022-08-17T04:40:21.331Z,28.64
2022-08-17T04:43:07.102Z,28.65
2022-08-17T04:45:38.819Z,28.60
2022-08-17T04:48:07.989Z,28.58
2022-08-17T04:50:37.332Z,28.57
2022-08-17T04:53:07.659Z,28.55
2022-08-17T04:55:35.206Z,28.53
2022-08-17T05:05:50.043Z,28.47
2022-08-17T05:08:21.978Z,28.47
2022-08-17T05:10:50.055Z,28.46
2022-08-17T05:13:21.991Z,28.46
2022-08-17T05:15:54.795Z,28.43
2022-08-17T05:18:24.644Z,28.41
2022-08-17T05:20:52.998Z,28.39
2022-08-17T05:26:03.272Z,28.37
2022-08-17T05:28:34.598Z,28.35
2022-08-17T05:31:03.448Z,28.37
2022-08-17T05:33:38.808Z,28.36
2022-08-17T05:36:10.736Z,28.32
2022-08-17T05:38:58.649Z,28.29
2022-08-17T05:44:16.969Z,28.28
2022-08-17T05:46:49.910Z,28.27
2022-08-17T05:49:23.455Z,28.26
2022-08-17T05:52:32.231Z,28.26
2022-08-17T05:55:18.719Z,28.25
2022-08-17T05:58:03.053Z,28.24
2022-08-17T06:01:01.831Z,28.23
2022-08-17T06:11:47.266Z,28.14
2022-08-17T06:14:46.761Z,28.11
2022-08-17T06:17:18.786Z,28.01
2022-08-17T06:20:02.957Z,27.99
2022-08-17T06:22:36.150Z,27.97
2022-08-17T06:25:12.514Z,27.96
2022-08-17T06:31:27.983Z,28.00
2022-08-17T06:33:58.478Z,27.99
2022-08-17T06:36:48.730Z,27.99
2022-08-17T06:39:52.574Z,27.95
2022-08-17T06:42:54.673Z,27.94
2022-08-17T06:46:13.091Z,27.91
2022-08-17T06:55:06.301Z,28.17
2022-08-17T06:57:42.211Z,28.06
2022-08-17T07:00:19.164Z,28.07
2022-08-17T07:03:15.296Z,28.05
2022-08-17T07:05:54.058Z,28.01
2022-08-17T07:08:54.067Z,28.01
2022-08-17T07:15:16.543Z,27.96
2022-08-17T07:17:48.298Z,27.94
2022-08-17T07:20:24.927Z,27.94
2022-08-17T07:23:13.828Z,27.94
2022-08-17T07:25:44.471Z,27.92
2022-08-17T07:28:13.742Z,27.90
2022-08-17T07:33:36.635Z,27.90
2022-08-17T07:36:04.421Z,27.87
2022-08-17T07:38:35.390Z,27.87
2022-08-17T07:41:08.787Z,27.85
2022-08-17T07:43:51.667Z,27.85
2022-08-17T07:46:37.541Z,27.81
2022-08-17T07:49:07.926Z,27.78
2022-08-17T07:54:15.594Z,27.74
2022-08-17T07:57:05.920Z,27.75
2022-08-17T07:59:39.152Z,27.75
2022-08-17T08:02:16.769Z,27.76
2022-08-17T08:05:00.756Z,27.74
2022-08-17T08:07:54.864Z,27.74
2022-08-17T08:10:35.587Z,27.70
2022-08-17T08:18:53.269Z,27.58
2022-08-17T08:21:32.820Z,27.53
2022-08-17T08:24:42.794Z,27.56
2022-08-17T08:27:35.819Z,27.54
2022-08-17T08:30:15.555Z,27.54
2022-08-17T08:33:07.546Z,27.51
2022-08-17T08:38:34.766Z,27.52
2022-08-17T08:41:22.745Z,27.52
2022-08-17T08:44:08.050Z,27.52
2022-08-17T08:46:53.607Z,27.52
2022-08-17T08:49:59.513Z,27.52
2022-08-17T08:52:48.224Z,27.52
2022-08-17T08:55:37.457Z,27.51
2022-08-17T09:03:52.349Z,27.47
2022-08-17T09:06:44.868Z,27.46
2022-08-17T09:09:32.692Z,27.42
2022-08-17T09:12:16.670Z,27.42
2022-08-17T09:14:55.017Z,27.44
2022-08-17T09:17:43.426Z,27.43
2022-08-17T09:20:27.595Z,27.44
2022-08-17T09:28:49.961Z,27.63
2022-08-17T09:31:47.041Z,27.51
2022-08-17T09:34:32.094Z,27.45
2022-08-17T09:37:13.031Z,27.44
2022-08-17T09:40:22.817Z,27.43
2022-08-17T09:43:08.493Z,27.40
2022-08-17T09:45:44.119Z,27.36
2022-08-17T09:51:49.643Z,27.60
2022-08-17T09:54:44.372Z,27.46
2022-08-17T09:57:31.709Z,27.40
2022-08-17T10:00:12.775Z,27.36
2022-08-17T10:02:53.458Z,27.33
2022-08-17T10:05:33.355Z,27.31
2022-08-17T10:13:10.161Z,27.22
2022-08-17T10:16:02.447Z,27.24
2022-08-17T10:18:56.154Z,27.22
2022-08-17T10:21:44.106Z,27.18
2022-08-17T10:25:23.088Z,27.18
2022-08-17T10:27:53.054Z,27.15
2022-08-17T10:30:25.986Z,27.13
2022-08-17T10:38:45.946Z,27.11
2022-08-17T10:41:25.587Z,27.13
2022-08-17T10:44:02.193Z,27.11
2022-08-17T10:47:09.096Z,27.13
2022-08-17T10:49:47.399Z,27.11
2022-08-17T10:52:22.827Z,27.12
2022-08-17T11:03:22.644Z,27.16
2022-08-17T11:06:02.609Z,27.16
2022-08-17T11:08:58.229Z,27.17
2022-08-17T11:11:47.285Z,27.18
2022-08-17T11:14:43.987Z,27.18
2022-08-17T11:17:42.066Z,27.19
2022-08-17T11:25:07.853Z,27.46
2022-08-17T11:27:36.666Z,27.35
2022-08-17T11:30:29.838Z,27.34
2022-08-17T11:32:59.355Z,27.34
2022-08-17T11:35:47.063Z,27.40
2022-08-17T11:38:57.763Z,27.44
2022-08-17T11:41:49.819Z,27.50
2022-08-17T11:51:22.355Z,27.72
2022-08-17T11:53:49.963Z,27.82
2022-08-17T11:56:38.206Z,28.03
2022-08-17T11:59:36.957Z,28.23
2022-08-17T12:02:47.514Z,28.33
2022-08-17T12:05:24.779Z,28.52
2022-08-17T12:16:07.075Z,29.21
2022-08-17T12:18:39.319Z,29.34
2022-08-17T12:21:29.436Z,29.48
2022-08-17T12:24:33.498Z,29.64
2022-08-17T12:27:07.404Z,29.78
2022-08-17T12:29:38.785Z,29.90
2022-08-17T12:32:21.832Z,30.02
2022-08-17T12:40:07.180Z,30.36
2022-08-17T12:42:42.227Z,30.45
2022-08-17T12:45:34.361Z,30.62
2022-08-17T12:48:08.316Z,30.65
2022-08-17T12:50:39.111Z,30.66
2022-08-17T12:53:35.712Z,30.85
2022-08-17T12:59:04.115Z,31.07
2022-08-17T13:01:43.296Z,31.24
2022-08-17T13:04:15.903Z,31.39
2022-08-17T13:07:00.170Z,31.56
2022-08-17T13:09:35.908Z,31.66
2022-08-17T13:12:08.975Z,31.71
2022-08-17T13:17:26.822Z,31.86
2022-08-17T13:19:54.528Z,31.93
2022-08-17T13:22:26.343Z,32.07
2022-08-17T13:25:02.969Z,32.27
2022-08-17T13:27:33.906Z,32.43
2022-08-17T13:30:13.298Z,32.63
2022-08-17T13:36:30.122Z,32.89
2022-08-17T13:39:16.319Z,33.06
2022-08-17T13:41:43.891Z,33.17
2022-08-17T13:44:32.953Z,33.18
2022-08-17T13:47:02.982Z,33.03
2022-08-17T13:49:41.718Z,33.12
2022-08-17T13:55:57.995Z,33.25
2022-08-17T13:58:34.884Z,33.47
2022-08-17T14:01:33.875Z,33.58
2022-08-17T14:04:07.202Z,33.37
2022-08-17T14:06:53.314Z,33.32
2022-08-17T14:09:27.752Z,33.25
2022-08-17T14:16:57.427Z,33.90
2022-08-17T14:19:25.357Z,34.05
2022-08-17T14:21:58.894Z,34.26
2022-08-17T14:24:35.535Z,34.26
2022-08-17T14:27:05.484Z,34.32
2022-08-17T14:29:34.252Z,34.53
2022-08-17T14:32:22.360Z,34.76
2022-08-17T14:40:13.578Z,35.20
2022-08-17T14:42:44.714Z,35.32
2022-08-17T14:45:32.325Z,35.54
2022-08-17T14:48:07.392Z,35.65
2022-08-17T14:50:42.759Z,35.90
2022-08-17T14:53:13.882Z,36.13
2022-08-17T14:55:45.634Z,36.29
2022-08-17T15:00:54.076Z,36.58
2022-08-17T15:03:23.913Z,36.67
2022-08-17T15:05:53.459Z,36.74
2022-08-17T15:08:23.003Z,36.63
2022-08-17T15:10:55.320Z,36.65
2022-08-17T15:13:27.783Z,36.87
2022-08-17T15:15:55.938Z,36.92
2022-08-17T15:23:34.060Z,37.33
2022-08-17T15:26:03.362Z,37.53
2022-08-17T15:28:32.927Z,37.65
2022-08-17T15:31:02.526Z,37.76
2022-08-17T15:33:30.948Z,37.96
2022-08-17T15:36:03.877Z,38.15
2022-08-17T15:38:39.396Z,38.36
2022-08-17T15:45:33.731Z,37.79
2022-08-17T15:48:03.092Z,37.93
2022-08-17T15:50:32.997Z,38.10
2022-08-17T15:53:04.608Z,38.33
2022-08-17T15:55:34.850Z,38.27
2022-08-17T15:58:03.875Z,38.01
2022-08-17T16:00:35.489Z,37.81
2022-08-17T16:05:54.849Z,38.18
2022-08-17T16:08:24.162Z,38.02
2022-08-17T16:10:53.638Z,38.16
2022-08-17T16:13:24.055Z,38.49
2022-08-17T16:15:57.212Z,38.71
2022-08-17T16:18:31.197Z,38.66
2022-08-17T16:24:13.245Z,39.08
2022-08-17T16:26:43.224Z,39.22
2022-08-17T16:29:14.321Z,39.32
2022-08-17T16:31:44.668Z,39.57
2022-08-17T16:34:18.420Z,39.58
2022-08-17T16:36:54.869Z,39.54
2022-08-17T16:42:48.247Z,39.56
2022-08-17T16:45:24.024Z,39.70
2022-08-17T16:47:53.877Z,39.87
2022-08-17T16:50:23.766Z,40.04
2022-08-17T16:52:53.264Z,40.21
2022-08-17T16:55:23.092Z,40.30
2022-08-17T16:57:51.673Z,40.41
2022-08-17T17:03:18.908Z,40.74
2022-08-17T17:06:18.693Z,40.82
2022-08-17T17:09:07.692Z,41.08
2022-08-17T17:11:44.700Z,41.18
2022-08-17T17:14:18.150Z,41.23
2022-08-17T17:16:54.301Z,41.21
2022-08-17T17:22:55.308Z,41.20
2022-08-17T17:25:28.557Z,40.87
2022-08-17T17:28:50.029Z,40.88
2022-08-17T17:31:24.604Z,40.99
2022-08-17T17:34:04.527Z,41.08
2022-08-17T17:36:36.714Z,40.89
2022-08-17T17:42:08.943Z,40.23
2022-08-17T17:44:43.837Z,40.40
2022-08-17T17:47:14.149Z,40.66
2022-08-17T17:49:48.548Z,40.73
2022-08-17T17:52:54.471Z,40.17
2022-08-17T17:55:34.432Z,39.87
2022-08-17T18:03:50.614Z,38.69
2022-08-17T18:06:36.162Z,38.28
2022-08-17T18:09:27.615Z,37.62
2022-08-17T18:12:37.059Z,36.90
2022-08-17T18:15:34.716Z,36.23
2022-08-17T18:18:16.641Z,36.10
2022-08-17T18:25:45.137Z,35.97
2022-08-17T18:28:46.049Z,35.92
2022-08-17T18:31:23.406Z,35.73
2022-08-17T18:33:57.429Z,35.66
2022-08-17T18:36:36.537Z,35.61
2022-08-17T18:39:25.118Z,35.52
2022-08-17T18:41:56.681Z,35.57
2022-08-17T18:49:36.775Z,35.72
2022-08-17T18:52:29.539Z,36.04
2022-08-17T18:55:16.826Z,36.45
2022-08-17T18:57:55.504Z,36.68
2022-08-17T19:00:43.424Z,36.87
2022-08-17T19:03:20.481Z,37.14
2022-08-17T19:06:16.611Z,37.58
2022-08-17T19:14:16.529Z,38.51
2022-08-17T19:17:07.030Z,38.19
2022-08-17T19:19:43.629Z,38.04
2022-08-17T19:22:45.155Z,38.06
2022-08-17T19:25:23.348Z,37.98
2022-08-17T19:28:03.725Z,37.88
2022-08-17T19:37:35.021Z,37.31
2022-08-17T19:40:53.673Z,37.33
2022-08-17T19:43:50.534Z,37.34
2022-08-17T19:46:48.593Z,37.33
2022-08-17T19:49:34.448Z,37.23
2022-08-17T19:52:18.668Z,37.20
2022-08-17T20:03:06.071Z,37.36
2022-08-17T20:06:08.462Z,37.41
2022-08-17T20:08:38.272Z,37.63
2022-08-17T20:11:15.123Z,37.88
2022-08-17T20:13:55.608Z,38.07
2022-08-17T20:16:24.578Z,38.23
2022-08-17T20:24:37.102Z,38.86
2022-08-17T20:27:29.515Z,38.78
2022-08-17T20:30:38.818Z,38.38
2022-08-17T20:33:28.085Z,38.14
2022-08-17T20:36:24.190Z,38.37
2022-08-17T20:38:57.606Z,38.67
2022-08-17T20:46:36.321Z,38.38
2022-08-17T20:49:33.742Z,38.05
2022-08-17T20:52:10.314Z,37.74
2022-08-17T20:54:58.830Z,37.53
2022-08-17T20:57:34.516Z,37.69
2022-08-17T21:00:16.607Z,37.73
2022-08-17T21:07:57.992Z,37.83
2022-08-17T21:10:25.565Z,37.76
2022-08-17T21:13:04.332Z,37.77
2022-08-17T21:16:05.155Z,37.87
2022-08-17T21:19:16.977Z,37.86
2022-08-17T21:22:15.184Z,37.89
2022-08-17T21:25:22.805Z,37.97
2022-08-17T21:33:38.308Z,37.71
2022-08-17T21:36:11.884Z,37.53
2022-08-17T21:39:08.801Z,37.49
2022-08-17T21:42:11.870Z,37.37
2022-08-17T21:44:54.311Z,37.26
2022-08-17T21:47:25.432Z,37.17
2022-08-17T21:55:28.171Z,36.92
2022-08-17T21:58:14.289Z,36.86
2022-08-17T22:00:44.603Z,36.81
2022-08-17T22:03:23.833Z,36.72
2022-08-17T22:05:51.629Z,36.63
2022-08-17T22:08:26.268Z,36.55
2022-08-17T22:14:56.197Z,36.32
2022-08-17T22:17:26.427Z,36.20
2022-08-17T22:20:10.370Z,36.19
2022-08-17T22:23:04.364Z,36.14
2022-08-17T22:25:39.136Z,36.06
2022-08-17T22:28:11.361Z,36.08
2022-08-17T22:34:26.859Z,36.00
2022-08-17T22:37:27.338Z,35.91
2022-08-17T22:39:59.563Z,35.75
2022-08-17T22:42:28.304Z,35.62
2022-08-17T22:44:55.802Z,35.56
2022-08-17T22:47:31.485Z,35.49
2022-08-17T22:53:35.097Z,35.37
2022-08-17T22:56:23.531Z,35.29
2022-08-17T22:59:15.193Z,35.30
2022-08-17T23:01:46.176Z,35.31
2022-08-17T23:04:37.524Z,35.27
2022-08-17T23:07:06.681Z,35.14
2022-08-17T23:09:36.093Z,35.09
2022-08-17T23:17:16.396Z,34.90
2022-08-17T23:19:44.931Z,34.82
2022-08-17T23:22:14.215Z,34.78
2022-08-17T23:24:46.848Z,34.79
2022-08-17T23:27:15.530Z,34.77
2022-08-17T23:29:45.095Z,34.74
2022-08-17T23:32:16.787Z,34.68
2022-08-17T23:38:47.402Z,34.56
2022-08-17T23:41:19.261Z,34.56
2022-08-17T23:43:50.881Z,34.55
2022-08-17T23:46:19.862Z,34.52
2022-08-17T23:48:48.017Z,34.47
2022-08-17T23:51:20.144Z,34.44
2022-08-17T23:54:07.884Z,34.44
